sensor_id;sensor_type;location;lat;lon;timestamp;P1;durP1;ratioP1;P2;durP2;ratioP2
51288;SDS011;37372;52.294;5.152;2022-10-17T00:00:11;10.02;;;6.00;;
51288;SDS011;37372;52.294;5.152;2022-10-17T00:02:36;10.05;;;4.97;;
51288;SDS011;37372;52.294;5.152;2022-10-17T00:05:02;9.95;;;5.82;;
51288;SDS011;37372;52.294;5.152;2022-10-17T00:07:27;8.30;;;5.47;;
51288;SDS011;37372;52.294;5.152;2022-10-17T00:09:54;11.02;;;5.63;;
51288;SDS011;37372;52.294;5.152;2022-10-17T00:12:20;9.57;;;5.95;;
51288;SDS011;37372;52.294;5.152;2022-10-17T00:14:45;9.63;;;6.15;;
51288;SDS011;37372;52.294;5.152;2022-10-17T00:17:10;9.35;;;6.22;;
51288;SDS011;37372;52.294;5.152;2022-10-17T00:19:36;10.10;;;6.88;;
51288;SDS011;37372;52.294;5.152;2022-10-17T00:22:01;9.50;;;6.05;;
51288;SDS011;37372;52.294;5.152;2022-10-17T00:24:28;13.18;;;6.70;;
51288;SDS011;37372;52.294;5.152;2022-10-17T00:26:54;16.30;;;7.00;;
51288;SDS011;37372;52.294;5.152;2022-10-17T00:29:20;8.85;;;6.38;;
51288;SDS011;37372;52.294;5.152;2022-10-17T00:31:45;11.90;;;7.63;;
51288;SDS011;37372;52.294;5.152;2022-10-17T00:34:10;18.00;;;8.23;;
51288;SDS011;37372;52.294;5.152;2022-10-17T00:36:36;10.93;;;7.22;;
51288;SDS011;37372;52.294;5.152;2022-10-17T00:39:02;12.18;;;7.47;;
51288;SDS011;37372;52.294;5.152;2022-10-17T00:41:29;14.35;;;7.40;;
51288;SDS011;37372;52.294;5.152;2022-10-17T00:46:34;14.32;;;8.15;;
51288;SDS011;37372;52.294;5.152;2022-10-17T00:49:05;15.98;;;9.27;;
51288;SDS011;37372;52.294;5.152;2022-10-17T00:51:34;12.80;;;8.57;;
51288;SDS011;37372;52.294;5.152;2022-10-17T00:54:05;17.17;;;10.23;;
51288;SDS011;37372;52.294;5.152;2022-10-17T00:56:31;14.95;;;9.18;;
51288;SDS011;37372;52.294;5.152;2022-10-17T00:58:57;15.27;;;9.48;;
51288;SDS011;37372;52.294;5.152;2022-10-17T01:01:23;18.17;;;9.68;;
51288;SDS011;37372;52.294;5.152;2022-10-17T01:03:48;15.05;;;10.00;;
51288;SDS011;37372;52.294;5.152;2022-10-17T01:06:14;14.68;;;9.35;;
51288;SDS011;37372;52.294;5.152;2022-10-17T01:08:39;17.55;;;11.32;;
51288;SDS011;37372;52.294;5.152;2022-10-17T01:14:14;15.30;;;10.60;;
51288;SDS011;37372;52.294;5.152;2022-10-17T01:17:08;16.77;;;9.90;;
51288;SDS011;37372;52.294;5.152;2022-10-17T01:22:27;19.17;;;12.48;;
51288;SDS011;37372;52.294;5.152;2022-10-17T01:33:10;18.70;;;11.20;;
51288;SDS011;37372;52.294;5.152;2022-10-17T01:35:43;23.50;;;13.30;;
51288;SDS011;37372;52.294;5.152;2022-10-17T01:38:19;20.88;;;12.32;;
51288;SDS011;37372;52.294;5.152;2022-10-17T01:40:59;20.58;;;12.60;;
51288;SDS011;37372;52.294;5.152;2022-10-17T01:43:36;16.92;;;12.60;;
51288;SDS011;37372;52.294;5.152;2022-10-17T01:46:14;20.67;;;12.00;;
51288;SDS011;37372;52.294;5.152;2022-10-17T01:48:44;23.23;;;12.80;;
51288;SDS011;37372;52.294;5.152;2022-10-17T01:53:59;23.17;;;14.17;;
51288;SDS011;37372;52.294;5.152;2022-10-17T01:56:29;19.23;;;13.33;;
51288;SDS011;37372;52.294;5.152;2022-10-17T01:59:00;20.15;;;13.45;;
51288;SDS011;37372;52.294;5.152;2022-10-17T02:01:32;25.73;;;14.25;;
51288;SDS011;37372;52.294;5.152;2022-10-17T02:04:01;19.98;;;12.95;;
51288;SDS011;37372;52.294;5.152;2022-10-17T02:06:32;23.63;;;13.02;;
51288;SDS011;37372;52.294;5.152;2022-10-17T02:08:58;19.63;;;12.93;;
51288;SDS011;37372;52.294;5.152;2022-10-17T02:11:25;19.95;;;13.00;;
51288;SDS011;37372;52.294;5.152;2022-10-17T02:30:10;24.23;;;14.40;;
51288;SDS011;37372;52.294;5.152;2022-10-17T02:32:43;20.67;;;14.18;;
51288;SDS011;37372;52.294;5.152;2022-10-17T02:35:15;23.88;;;14.60;;
51288;SDS011;37372;52.294;5.152;2022-10-17T02:37:43;20.63;;;13.75;;
51288;SDS011;37372;52.294;5.152;2022-10-17T02:40:12;23.77;;;13.63;;
51288;SDS011;37372;52.294;5.152;2022-10-17T02:42:41;21.40;;;14.65;;
51288;SDS011;37372;52.294;5.152;2022-10-17T02:45:09;29.08;;;16.13;;
51288;SDS011;37372;52.294;5.152;2022-10-17T02:47:56;24.33;;;14.90;;
51288;SDS011;37372;52.294;5.152;2022-10-17T02:50:31;20.95;;;14.07;;
51288;SDS011;37372;52.294;5.152;2022-10-17T02:53:05;22.60;;;14.63;;
51288;SDS011;37372;52.294;5.152;2022-10-17T02:55:38;22.90;;;14.50;;
51288;SDS011;37372;52.294;5.152;2022-10-17T02:58:14;21.60;;;13.80;;
51288;SDS011;37372;52.294;5.152;2022-10-17T03:00:43;21.35;;;13.38;;
51288;SDS011;37372;52.294;5.152;2022-10-17T03:03:19;22.77;;;14.13;;
51288;SDS011;37372;52.294;5.152;2022-10-17T03:05:49;19.77;;;13.93;;
51288;SDS011;37372;52.294;5.152;2022-10-17T03:08:16;22.80;;;14.13;;
51288;SDS011;37372;52.294;5.152;2022-10-17T03:10:41;23.90;;;14.35;;
51288;SDS011;37372;52.294;5.152;2022-10-17T03:13:06;22.70;;;14.10;;
51288;SDS011;37372;52.294;5.152;2022-10-17T03:15:31;21.33;;;13.50;;
51288;SDS011;37372;52.294;5.152;2022-10-17T03:17:57;22.05;;;13.63;;
51288;SDS011;37372;52.294;5.152;2022-10-17T03:20:22;21.90;;;14.00;;
51288;SDS011;37372;52.294;5.152;2022-10-17T03:22:47;20.70;;;14.00;;
51288;SDS011;37372;52.294;5.152;2022-10-17T03:25:13;22.55;;;13.23;;
51288;SDS011;37372;52.294;5.152;2022-10-17T03:27:38;23.50;;;12.98;;
51288;SDS011;37372;52.294;5.152;2022-10-17T03:30:03;21.10;;;12.52;;
51288;SDS011;37372;52.294;5.152;2022-10-17T03:32:31;23.52;;;13.55;;
51288;SDS011;37372;52.294;5.152;2022-10-17T03:34:57;25.13;;;12.70;;
51288;SDS011;37372;52.294;5.152;2022-10-17T03:37:22;23.33;;;13.32;;
51288;SDS011;37372;52.294;5.152;2022-10-17T03:39:48;26.67;;;13.18;;
51288;SDS011;37372;52.294;5.152;2022-10-17T03:42:13;23.52;;;13.43;;
51288;SDS011;37372;52.294;5.152;2022-10-17T03:44:38;26.40;;;13.13;;
51288;SDS011;37372;52.294;5.152;2022-10-17T03:47:04;23.92;;;12.70;;
51288;SDS011;37372;52.294;5.152;2022-10-17T03:49:29;23.67;;;13.15;;
51288;SDS011;37372;52.294;5.152;2022-10-17T03:51:54;21.35;;;12.15;;
51288;SDS011;37372;52.294;5.152;2022-10-17T03:54:19;19.45;;;12.02;;
51288;SDS011;37372;52.294;5.152;2022-10-17T03:56:45;24.05;;;12.45;;
51288;SDS011;37372;52.294;5.152;2022-10-17T03:59:11;18.23;;;12.07;;
51288;SDS011;37372;52.294;5.152;2022-10-17T04:01:38;21.92;;;12.15;;
51288;SDS011;37372;52.294;5.152;2022-10-17T04:04:04;17.27;;;11.68;;
51288;SDS011;37372;52.294;5.152;2022-10-17T04:06:29;18.65;;;12.27;;
51288;SDS011;37372;52.294;5.152;2022-10-17T04:08:55;22.92;;;12.52;;
51288;SDS011;37372;52.294;5.152;2022-10-17T04:11:20;20.23;;;12.20;;
51288;SDS011;37372;52.294;5.152;2022-10-17T04:13:46;18.52;;;12.55;;
51288;SDS011;37372;52.294;5.152;2022-10-17T04:16:12;22.08;;;11.55;;
51288;SDS011;37372;52.294;5.152;2022-10-17T04:18:39;19.25;;;10.88;;
51288;SDS011;37372;52.294;5.152;2022-10-17T04:21:06;20.73;;;11.55;;
51288;SDS011;37372;52.294;5.152;2022-10-17T04:23:32;20.92;;;11.40;;
51288;SDS011;37372;52.294;5.152;2022-10-17T04:25:57;16.70;;;11.18;;
51288;SDS011;37372;52.294;5.152;2022-10-17T04:28:24;21.63;;;12.10;;
51288;SDS011;37372;52.294;5.152;2022-10-17T04:30:55;21.27;;;11.48;;
51288;SDS011;37372;52.294;5.152;2022-10-17T04:33:21;20.35;;;12.10;;
51288;SDS011;37372;52.294;5.152;2022-10-17T04:35:54;22.33;;;12.10;;
51288;SDS011;37372;52.294;5.152;2022-10-17T04:38:20;20.27;;;11.68;;
51288;SDS011;37372;52.294;5.152;2022-10-17T04:40:46;19.17;;;12.23;;
51288;SDS011;37372;52.294;5.152;2022-10-17T04:43:11;18.25;;;12.05;;
51288;SDS011;37372;52.294;5.152;2022-10-17T04:45:37;18.60;;;11.38;;
51288;SDS011;37372;52.294;5.152;2022-10-17T04:48:02;18.92;;;11.27;;
51288;SDS011;37372;52.294;5.152;2022-10-17T04:50:27;24.02;;;12.65;;
51288;SDS011;37372;52.294;5.152;2022-10-17T04:52:53;25.42;;;12.63;;
51288;SDS011;37372;52.294;5.152;2022-10-17T04:55:18;16.90;;;10.75;;
51288;SDS011;37372;52.294;5.152;2022-10-17T04:57:43;20.25;;;11.65;;
51288;SDS011;37372;52.294;5.152;2022-10-17T05:00:09;19.05;;;11.02;;
51288;SDS011;37372;52.294;5.152;2022-10-17T05:02:35;18.60;;;10.85;;
51288;SDS011;37372;52.294;5.152;2022-10-17T05:05:00;15.65;;;10.18;;
51288;SDS011;37372;52.294;5.152;2022-10-17T05:07:25;17.75;;;10.27;;
51288;SDS011;37372;52.294;5.152;2022-10-17T05:09:51;17.45;;;10.15;;
51288;SDS011;37372;52.294;5.152;2022-10-17T05:12:16;15.40;;;9.00;;
51288;SDS011;37372;52.294;5.152;2022-10-17T05:14:41;16.48;;;10.77;;
51288;SDS011;37372;52.294;5.152;2022-10-17T05:17:07;16.17;;;10.27;;
51288;SDS011;37372;52.294;5.152;2022-10-17T05:19:32;17.50;;;9.65;;
51288;SDS011;37372;52.294;5.152;2022-10-17T05:21:57;14.15;;;9.23;;
51288;SDS011;37372;52.294;5.152;2022-10-17T05:24:23;16.77;;;11.05;;
51288;SDS011;37372;52.294;5.152;2022-10-17T05:26:49;14.02;;;7.95;;
51288;SDS011;37372;52.294;5.152;2022-10-17T05:29:15;14.27;;;8.65;;
51288;SDS011;37372;52.294;5.152;2022-10-17T05:31:41;16.35;;;8.77;;
51288;SDS011;37372;52.294;5.152;2022-10-17T05:34:06;13.02;;;8.48;;
51288;SDS011;37372;52.294;5.152;2022-10-17T05:36:31;14.77;;;8.98;;
51288;SDS011;37372;52.294;5.152;2022-10-17T05:38:57;19.35;;;8.95;;
51288;SDS011;37372;52.294;5.152;2022-10-17T05:41:23;12.98;;;9.00;;
51288;SDS011;37372;52.294;5.152;2022-10-17T05:43:48;13.02;;;8.52;;
51288;SDS011;37372;52.294;5.152;2022-10-17T05:46:14;14.27;;;8.38;;
51288;SDS011;37372;52.294;5.152;2022-10-17T05:48:39;14.40;;;8.68;;
51288;SDS011;37372;52.294;5.152;2022-10-17T05:51:06;16.00;;;9.00;;
51288;SDS011;37372;52.294;5.152;2022-10-17T05:53:35;15.02;;;8.45;;
51288;SDS011;37372;52.294;5.152;2022-10-17T05:56:02;16.38;;;8.80;;
51288;SDS011;37372;52.294;5.152;2022-10-17T05:58:29;12.30;;;8.40;;
51288;SDS011;37372;52.294;5.152;2022-10-17T06:00:57;13.25;;;8.68;;
51288;SDS011;37372;52.294;5.152;2022-10-17T06:03:23;10.77;;;8.27;;
51288;SDS011;37372;52.294;5.152;2022-10-17T06:05:49;16.17;;;8.75;;
51288;SDS011;37372;52.294;5.152;2022-10-17T06:08:15;13.98;;;8.73;;
51288;SDS011;37372;52.294;5.152;2022-10-17T06:10:41;15.57;;;9.10;;
51288;SDS011;37372;52.294;5.152;2022-10-17T06:13:06;23.08;;;9.88;;
51288;SDS011;37372;52.294;5.152;2022-10-17T06:15:31;15.30;;;9.07;;
51288;SDS011;37372;52.294;5.152;2022-10-17T06:17:57;14.60;;;9.00;;
51288;SDS011;37372;52.294;5.152;2022-10-17T06:20:22;14.82;;;9.10;;
51288;SDS011;37372;52.294;5.152;2022-10-17T06:22:47;13.38;;;9.43;;
51288;SDS011;37372;52.294;5.152;2022-10-17T06:25:12;15.38;;;10.57;;
51288;SDS011;37372;52.294;5.152;2022-10-17T06:27:38;20.83;;;9.98;;
51288;SDS011;37372;52.294;5.152;2022-10-17T06:30:04;24.88;;;11.43;;
51288;SDS011;37372;52.294;5.152;2022-10-17T06:32:29;18.08;;;10.80;;
51288;SDS011;37372;52.294;5.152;2022-10-17T06:34:55;19.40;;;11.23;;
51288;SDS011;37372;52.294;5.152;2022-10-17T06:37:20;16.33;;;11.10;;
51288;SDS011;37372;52.294;5.152;2022-10-17T06:39:45;24.05;;;12.45;;
51288;SDS011;37372;52.294;5.152;2022-10-17T06:42:11;30.63;;;13.45;;
51288;SDS011;37372;52.294;5.152;2022-10-17T06:44:36;18.73;;;11.70;;
51288;SDS011;37372;52.294;5.152;2022-10-17T06:47:02;16.60;;;10.57;;
51288;SDS011;37372;52.294;5.152;2022-10-17T06:49:27;21.40;;;11.75;;
51288;SDS011;37372;52.294;5.152;2022-10-17T06:51:53;17.48;;;10.57;;
51288;SDS011;37372;52.294;5.152;2022-10-17T06:54:18;16.40;;;10.50;;
51288;SDS011;37372;52.294;5.152;2022-10-17T06:56:44;16.70;;;10.88;;
51288;SDS011;37372;52.294;5.152;2022-10-17T06:59:09;17.85;;;11.38;;
51288;SDS011;37372;52.294;5.152;2022-10-17T07:01:35;19.35;;;11.45;;
51288;SDS011;37372;52.294;5.152;2022-10-17T07:04:00;14.77;;;10.57;;
51288;SDS011;37372;52.294;5.152;2022-10-17T07:06:25;19.10;;;11.48;;
51288;SDS011;37372;52.294;5.152;2022-10-17T07:08:51;16.58;;;10.65;;
51288;SDS011;37372;52.294;5.152;2022-10-17T07:11:19;14.38;;;9.63;;
51288;SDS011;37372;52.294;5.152;2022-10-17T07:13:45;15.43;;;10.10;;
51288;SDS011;37372;52.294;5.152;2022-10-17T07:16:11;17.17;;;9.73;;
51288;SDS011;37372;52.294;5.152;2022-10-17T07:18:37;23.60;;;12.70;;
51288;SDS011;37372;52.294;5.152;2022-10-17T07:21:03;21.00;;;10.50;;
51288;SDS011;37372;52.294;5.152;2022-10-17T07:23:29;15.20;;;9.38;;
51288;SDS011;37372;52.294;5.152;2022-10-17T07:26:01;20.23;;;10.88;;
51288;SDS011;37372;52.294;5.152;2022-10-17T07:28:31;14.48;;;10.02;;
51288;SDS011;37372;52.294;5.152;2022-10-17T07:31:04;13.93;;;9.95;;
51288;SDS011;37372;52.294;5.152;2022-10-17T07:33:31;19.93;;;11.23;;
51288;SDS011;37372;52.294;5.152;2022-10-17T07:35:57;14.40;;;9.57;;
51288;SDS011;37372;52.294;5.152;2022-10-17T07:38:24;16.15;;;9.43;;
51288;SDS011;37372;52.294;5.152;2022-10-17T07:40:56;15.45;;;9.65;;
51288;SDS011;37372;52.294;5.152;2022-10-17T07:43:23;19.05;;;9.95;;
51288;SDS011;37372;52.294;5.152;2022-10-17T07:45:49;12.52;;;9.70;;
51288;SDS011;37372;52.294;5.152;2022-10-17T07:48:15;13.55;;;8.23;;
51288;SDS011;37372;52.294;5.152;2022-10-17T07:50:40;15.38;;;9.05;;
51288;SDS011;37372;52.294;5.152;2022-10-17T07:53:06;17.80;;;9.32;;
51288;SDS011;37372;52.294;5.152;2022-10-17T07:55:31;13.52;;;9.27;;
51288;SDS011;37372;52.294;5.152;2022-10-17T07:57:56;14.95;;;9.55;;
51288;SDS011;37372;52.294;5.152;2022-10-17T08:00:22;14.95;;;9.63;;
51288;SDS011;37372;52.294;5.152;2022-10-17T08:02:47;15.50;;;9.77;;
51288;SDS011;37372;52.294;5.152;2022-10-17T08:05:13;17.77;;;9.85;;
51288;SDS011;37372;52.294;5.152;2022-10-17T08:07:38;17.77;;;10.57;;
51288;SDS011;37372;52.294;5.152;2022-10-17T08:10:05;13.35;;;8.45;;
51288;SDS011;37372;52.294;5.152;2022-10-17T08:12:31;14.10;;;9.40;;
51288;SDS011;37372;52.294;5.152;2022-10-17T08:14:58;17.40;;;9.15;;
51288;SDS011;37372;52.294;5.152;2022-10-17T08:17:27;16.98;;;9.48;;
51288;SDS011;37372;52.294;5.152;2022-10-17T08:19:52;18.42;;;9.52;;
51288;SDS011;37372;52.294;5.152;2022-10-17T08:22:18;17.83;;;9.65;;
51288;SDS011;37372;52.294;5.152;2022-10-17T08:24:43;18.55;;;9.63;;
51288;SDS011;37372;52.294;5.152;2022-10-17T08:27:10;15.25;;;9.60;;
51288;SDS011;37372;52.294;5.152;2022-10-17T08:29:37;17.35;;;9.65;;
51288;SDS011;37372;52.294;5.152;2022-10-17T08:32:04;14.82;;;9.60;;
51288;SDS011;37372;52.294;5.152;2022-10-17T08:34:31;15.82;;;9.77;;
51288;SDS011;37372;52.294;5.152;2022-10-17T08:36:56;17.75;;;10.07;;
51288;SDS011;37372;52.294;5.152;2022-10-17T08:39:22;17.38;;;11.25;;
51288;SDS011;37372;52.294;5.152;2022-10-17T08:44:28;16.10;;;10.98;;
51288;SDS011;37372;52.294;5.152;2022-10-17T08:47:26;15.30;;;11.20;;
51288;SDS011;37372;52.294;5.152;2022-10-17T08:49:58;21.00;;;11.02;;
51288;SDS011;37372;52.294;5.152;2022-10-17T08:52:40;14.07;;;10.32;;
51288;SDS011;37372;52.294;5.152;2022-10-17T08:55:15;17.25;;;11.30;;
51288;SDS011;37372;52.294;5.152;2022-10-17T08:57:44;19.20;;;11.55;;
51288;SDS011;37372;52.294;5.152;2022-10-17T09:00:14;17.17;;;11.38;;
51288;SDS011;37372;52.294;5.152;2022-10-17T09:11:32;23.13;;;11.02;;
51288;SDS011;37372;52.294;5.152;2022-10-17T09:19:31;18.70;;;11.00;;
51288;SDS011;37372;52.294;5.152;2022-10-17T09:22:20;19.60;;;11.90;;
51288;SDS011;37372;52.294;5.152;2022-10-17T09:24:50;19.70;;;11.60;;
51288;SDS011;37372;52.294;5.152;2022-10-17T09:27:24;20.55;;;11.18;;
51288;SDS011;37372;52.294;5.152;2022-10-17T09:32:44;18.60;;;11.32;;
51288;SDS011;37372;52.294;5.152;2022-10-17T09:35:12;19.38;;;11.60;;
51288;SDS011;37372;52.294;5.152;2022-10-17T09:37:38;17.35;;;11.55;;
51288;SDS011;37372;52.294;5.152;2022-10-17T09:40:05;18.35;;;10.60;;
51288;SDS011;37372;52.294;5.152;2022-10-17T09:42:36;17.08;;;10.68;;
51288;SDS011;37372;52.294;5.152;2022-10-17T09:47:49;18.40;;;11.27;;
51288;SDS011;37372;52.294;5.152;2022-10-17T09:50:25;17.58;;;10.43;;
51288;SDS011;37372;52.294;5.152;2022-10-17T09:52:53;17.33;;;11.60;;
51288;SDS011;37372;52.294;5.152;2022-10-17T09:55:41;20.75;;;11.02;;
51288;SDS011;37372;52.294;5.152;2022-10-17T09:58:11;20.08;;;10.38;;
51288;SDS011;37372;52.294;5.152;2022-10-17T10:00:38;16.98;;;10.05;;
51288;SDS011;37372;52.294;5.152;2022-10-17T10:05:36;19.17;;;11.95;;
51288;SDS011;37372;52.294;5.152;2022-10-17T10:08:03;18.98;;;10.43;;
51288;SDS011;37372;52.294;5.152;2022-10-17T10:10:31;16.17;;;10.63;;
51288;SDS011;37372;52.294;5.152;2022-10-17T10:13:05;20.35;;;11.40;;
51288;SDS011;37372;52.294;5.152;2022-10-17T10:15:41;15.18;;;9.43;;
51288;SDS011;37372;52.294;5.152;2022-10-17T10:20:49;13.70;;;10.07;;
51288;SDS011;37372;52.294;5.152;2022-10-17T10:26:24;15.40;;;10.60;;
51288;SDS011;37372;52.294;5.152;2022-10-17T10:28:52;17.90;;;11.32;;
51288;SDS011;37372;52.294;5.152;2022-10-17T10:34:14;14.43;;;9.90;;
51288;SDS011;37372;52.294;5.152;2022-10-17T10:36:45;15.80;;;10.93;;
51288;SDS011;37372;52.294;5.152;2022-10-17T10:39:30;16.10;;;10.48;;
51288;SDS011;37372;52.294;5.152;2022-10-17T10:41:59;17.77;;;11.40;;
51288;SDS011;37372;52.294;5.152;2022-10-17T10:44:27;15.57;;;9.80;;
51288;SDS011;37372;52.294;5.152;2022-10-17T10:49:32;14.38;;;9.52;;
51288;SDS011;37372;52.294;5.152;2022-10-17T10:51:57;14.65;;;9.45;;
51288;SDS011;37372;52.294;5.152;2022-10-17T10:54:28;14.27;;;9.30;;
51288;SDS011;37372;52.294;5.152;2022-10-17T10:57:02;14.45;;;10.00;;
51288;SDS011;37372;52.294;5.152;2022-10-17T10:59:42;17.15;;;10.05;;
51288;SDS011;37372;52.294;5.152;2022-10-17T11:04:44;21.77;;;9.98;;
51288;SDS011;37372;52.294;5.152;2022-10-17T11:12:24;13.90;;;8.77;;
51288;SDS011;37372;52.294;5.152;2022-10-17T11:15:01;14.25;;;9.13;;
51288;SDS011;37372;52.294;5.152;2022-10-17T11:17:40;12.73;;;7.13;;
51288;SDS011;37372;52.294;5.152;2022-10-17T11:20:35;9.13;;;5.93;;
51288;SDS011;37372;52.294;5.152;2022-10-17T11:23:12;10.00;;;4.97;;
51288;SDS011;37372;52.294;5.152;2022-10-17T11:25:44;7.70;;;4.45;;
51288;SDS011;37372;52.294;5.152;2022-10-17T11:28:16;9.38;;;6.10;;
51288;SDS011;37372;52.294;5.152;2022-10-17T11:30:51;7.65;;;5.25;;
51288;SDS011;37372;52.294;5.152;2022-10-17T11:33:29;5.90;;;3.05;;
51288;SDS011;37372;52.294;5.152;2022-10-17T11:36:04;9.73;;;2.90;;
51288;SDS011;37372;52.294;5.152;2022-10-17T11:38:35;5.10;;;2.42;;
51288;SDS011;37372;52.294;5.152;2022-10-17T11:41:01;3.60;;;1.52;;
51288;SDS011;37372;52.294;5.152;2022-10-17T11:43:37;3.45;;;1.30;;
51288;SDS011;37372;52.294;5.152;2022-10-17T11:46:11;2.58;;;0.90;;
51288;SDS011;37372;52.294;5.152;2022-10-17T11:51:30;2.40;;;0.98;;
51288;SDS011;37372;52.294;5.152;2022-10-17T11:54:08;3.05;;;1.20;;
51288;SDS011;37372;52.294;5.152;2022-10-17T11:56:41;3.80;;;1.10;;
51288;SDS011;37372;52.294;5.152;2022-10-17T12:02:10;3.75;;;1.38;;
51288;SDS011;37372;52.294;5.152;2022-10-17T12:16:42;2.05;;;1.20;;
51288;SDS011;37372;52.294;5.152;2022-10-17T12:18:42;4.85;;;1.52;;
51288;SDS011;37372;52.294;5.152;2022-10-17T12:21:08;4.13;;;1.63;;
51288;SDS011;37372;52.294;5.152;2022-10-17T12:23:33;3.40;;;1.30;;
51288;SDS011;37372;52.294;5.152;2022-10-17T12:26:04;7.63;;;2.13;;
51288;SDS011;37372;52.294;5.152;2022-10-17T12:31:03;3.78;;;2.00;;
51288;SDS011;37372;52.294;5.152;2022-10-17T12:52:20;5.70;;;3.67;;
51288;SDS011;37372;52.294;5.152;2022-10-17T12:55:12;7.82;;;4.05;;
51288;SDS011;37372;52.294;5.152;2022-10-17T12:57:49;6.43;;;4.25;;
51288;SDS011;37372;52.294;5.152;2022-10-17T13:00:21;5.68;;;3.58;;
51288;SDS011;37372;52.294;5.152;2022-10-17T13:02:53;5.68;;;4.32;;
51288;SDS011;37372;52.294;5.152;2022-10-17T13:05:39;8.18;;;6.03;;
51288;SDS011;37372;52.294;5.152;2022-10-17T13:08:07;7.20;;;5.47;;
51288;SDS011;37372;52.294;5.152;2022-10-17T13:10:39;8.77;;;5.35;;
51288;SDS011;37372;52.294;5.152;2022-10-17T13:19:00;6.95;;;4.40;;
51288;SDS011;37372;52.294;5.152;2022-10-17T13:21:28;5.93;;;4.82;;
51288;SDS011;37372;52.294;5.152;2022-10-17T13:23:53;8.13;;;5.00;;
51288;SDS011;37372;52.294;5.152;2022-10-17T13:26:26;6.43;;;4.70;;
51288;SDS011;37372;52.294;5.152;2022-10-17T13:29:26;5.73;;;4.10;;
51288;SDS011;37372;52.294;5.152;2022-10-17T13:31:49;7.47;;;4.68;;
51288;SDS011;37372;52.294;5.152;2022-10-17T13:34:18;4.47;;;3.28;;
51288;SDS011;37372;52.294;5.152;2022-10-17T13:37:09;7.45;;;4.28;;
51288;SDS011;37372;52.294;5.152;2022-10-17T13:39:41;5.68;;;4.05;;
51288;SDS011;37372;52.294;5.152;2022-10-17T13:42:20;7.07;;;3.95;;
51288;SDS011;37372;52.294;5.152;2022-10-17T13:44:49;6.43;;;3.55;;
51288;SDS011;37372;52.294;5.152;2022-10-17T13:47:20;5.00;;;3.13;;
51288;SDS011;37372;52.294;5.152;2022-10-17T13:49:49;9.23;;;3.57;;
51288;SDS011;37372;52.294;5.152;2022-10-17T13:52:17;6.57;;;3.25;;
51288;SDS011;37372;52.294;5.152;2022-10-17T13:54:45;6.80;;;3.38;;
51288;SDS011;37372;52.294;5.152;2022-10-17T13:59:55;5.28;;;3.88;;
51288;SDS011;37372;52.294;5.152;2022-10-17T14:02:27;6.57;;;3.88;;
51288;SDS011;37372;52.294;5.152;2022-10-17T14:10:19;8.10;;;4.43;;
51288;SDS011;37372;52.294;5.152;2022-10-17T14:12:45;5.00;;;3.70;;
51288;SDS011;37372;52.294;5.152;2022-10-17T14:15:14;5.43;;;3.72;;
51288;SDS011;37372;52.294;5.152;2022-10-17T14:17:41;7.25;;;4.25;;
51288;SDS011;37372;52.294;5.152;2022-10-17T14:20:15;9.40;;;4.32;;
51288;SDS011;37372;52.294;5.152;2022-10-17T14:22:45;10.35;;;4.78;;
51288;SDS011;37372;52.294;5.152;2022-10-17T14:30:38;6.60;;;4.25;;
51288;SDS011;37372;52.294;5.152;2022-10-17T14:33:07;8.10;;;4.55;;
51288;SDS011;37372;52.294;5.152;2022-10-17T14:35:37;9.00;;;4.55;;
51288;SDS011;37372;52.294;5.152;2022-10-17T14:38:04;9.40;;;5.03;;
51288;SDS011;37372;52.294;5.152;2022-10-17T14:40:31;8.65;;;5.07;;
51288;SDS011;37372;52.294;5.152;2022-10-17T14:43:02;6.60;;;5.15;;
51288;SDS011;37372;52.294;5.152;2022-10-17T14:45:34;15.55;;;6.90;;
51288;SDS011;37372;52.294;5.152;2022-10-17T14:48:22;10.13;;;5.95;;
51288;SDS011;37372;52.294;5.152;2022-10-17T14:51:06;9.75;;;6.03;;
51288;SDS011;37372;52.294;5.152;2022-10-17T14:53:40;8.68;;;6.38;;
51288;SDS011;37372;52.294;5.152;2022-10-17T14:56:21;8.27;;;5.93;;
51288;SDS011;37372;52.294;5.152;2022-10-17T14:58:48;11.20;;;6.07;;
51288;SDS011;37372;52.294;5.152;2022-10-17T15:01:13;8.40;;;6.05;;
51288;SDS011;37372;52.294;5.152;2022-10-17T15:03:39;13.68;;;7.30;;
51288;SDS011;37372;52.294;5.152;2022-10-17T15:08:59;17.92;;;7.22;;
51288;SDS011;37372;52.294;5.152;2022-10-17T15:11:24;10.63;;;6.45;;
51288;SDS011;37372;52.294;5.152;2022-10-17T15:13:50;11.98;;;6.90;;
51288;SDS011;37372;52.294;5.152;2022-10-17T15:16:18;9.65;;;6.20;;
51288;SDS011;37372;52.294;5.152;2022-10-17T15:18:45;11.20;;;6.43;;
51288;SDS011;37372;52.294;5.152;2022-10-17T15:21:15;13.40;;;5.82;;
51288;SDS011;37372;52.294;5.152;2022-10-17T15:23:42;11.32;;;5.35;;
51288;SDS011;37372;52.294;5.152;2022-10-17T15:26:17;8.70;;;4.95;;
51288;SDS011;37372;52.294;5.152;2022-10-17T15:28:45;10.98;;;4.95;;
51288;SDS011;37372;52.294;5.152;2022-10-17T15:31:12;6.68;;;4.20;;
51288;SDS011;37372;52.294;5.152;2022-10-17T15:33:38;9.68;;;4.65;;
51288;SDS011;37372;52.294;5.152;2022-10-17T15:36:04;11.00;;;5.75;;
51288;SDS011;37372;52.294;5.152;2022-10-17T15:38:29;9.52;;;5.35;;
51288;SDS011;37372;52.294;5.152;2022-10-17T15:40:55;12.27;;;5.43;;
51288;SDS011;37372;52.294;5.152;2022-10-17T15:43:20;10.40;;;4.28;;
51288;SDS011;37372;52.294;5.152;2022-10-17T15:45:45;10.55;;;4.35;;
51288;SDS011;37372;52.294;5.152;2022-10-17T15:48:15;8.60;;;4.72;;
51288;SDS011;37372;52.294;5.152;2022-10-17T15:50:43;7.05;;;5.07;;
51288;SDS011;37372;52.294;5.152;2022-10-17T15:53:12;13.77;;;5.82;;
51288;SDS011;37372;52.294;5.152;2022-10-17T15:55:38;9.77;;;5.63;;
51288;SDS011;37372;52.294;5.152;2022-10-17T15:58:03;10.88;;;5.53;;
51288;SDS011;37372;52.294;5.152;2022-10-17T16:00:29;8.55;;;4.70;;
51288;SDS011;37372;52.294;5.152;2022-10-17T16:02:54;9.95;;;4.65;;
51288;SDS011;37372;52.294;5.152;2022-10-17T16:05:22;8.85;;;4.10;;
51288;SDS011;37372;52.294;5.152;2022-10-17T16:07:53;9.48;;;4.68;;
51288;SDS011;37372;52.294;5.152;2022-10-17T16:10:19;7.45;;;4.60;;
51288;SDS011;37372;52.294;5.152;2022-10-17T16:12:45;11.40;;;4.93;;
51288;SDS011;37372;52.294;5.152;2022-10-17T16:15:14;10.95;;;4.75;;
51288;SDS011;37372;52.294;5.152;2022-10-17T16:17:41;10.85;;;4.43;;
51288;SDS011;37372;52.294;5.152;2022-10-17T16:20:08;8.18;;;5.00;;
51288;SDS011;37372;52.294;5.152;2022-10-17T16:22:34;8.40;;;4.28;;
51288;SDS011;37372;52.294;5.152;2022-10-17T16:25:01;12.95;;;5.32;;
51288;SDS011;37372;52.294;5.152;2022-10-17T16:27:34;10.45;;;5.25;;
51288;SDS011;37372;52.294;5.152;2022-10-17T16:30:00;13.57;;;6.28;;
51288;SDS011;37372;52.294;5.152;2022-10-17T16:32:26;12.65;;;6.00;;
51288;SDS011;37372;52.294;5.152;2022-10-17T16:34:51;7.50;;;5.03;;
51288;SDS011;37372;52.294;5.152;2022-10-17T16:37:17;14.70;;;5.88;;
51288;SDS011;37372;52.294;5.152;2022-10-17T16:39:42;13.43;;;5.30;;
51288;SDS011;37372;52.294;5.152;2022-10-17T16:42:12;13.18;;;4.95;;
51288;SDS011;37372;52.294;5.152;2022-10-17T16:44:38;10.60;;;4.75;;
51288;SDS011;37372;52.294;5.152;2022-10-17T16:47:03;11.48;;;5.10;;
51288;SDS011;37372;52.294;5.152;2022-10-17T16:49:28;11.75;;;5.32;;
51288;SDS011;37372;52.294;5.152;2022-10-17T16:51:54;6.82;;;4.57;;
51288;SDS011;37372;52.294;5.152;2022-10-17T16:54:20;8.60;;;5.07;;
51288;SDS011;37372;52.294;5.152;2022-10-17T16:56:45;12.50;;;5.53;;
51288;SDS011;37372;52.294;5.152;2022-10-17T16:59:11;8.55;;;5.30;;
51288;SDS011;37372;52.294;5.152;2022-10-17T17:01:36;10.52;;;6.57;;